GMAT

Tan Tan Airport

Tan Tan, Morocco
METAR GMAT 231000Z 18010KT CAVOK 22/16 Q1021 NOSIG
Observed Flight Rules
Oct-23 @ 10:00 UTC (23 minutes ago) Visual Flight Rules
Wind Visibility Clouds
180° at 10 knots 10,000+ meters
  • Clear skies
Temperatures Readings
Current 22°C / 72°F
Dewpoint 16°C / 61°F
Humidity 69%
Altimeter 30.15" Hg
Pressure 1021 hPa
Elevation 200
METAR GMAT 231000Z 18010KT CAVOK 22/16 Q1021 NOSIG
Observed Flight Rules
Oct-23 @ 10:00 UTC
(23 minutes ago)
VFR
Wind Visibility
180° at 10 knots 10,000+ meters
Clouds
  • Clear skies
Temperature Dewpoint
22°C / 72°F 16°C / 61°F
Humidity Altimeter Pressure
69% 30.15" Hg 1021 hPa